LEIB/IBZ METAR and TAF weather

Enter ICAO airport designator
Station Type Date Time Source
LEIB METAR 2021/04/13 23:30 UTC NOAA

LEIB 132330Z 09006KT 060V130 9999 BKN021 14/10 Q1022 NOSIG


Station Type Date Time Source
LEIB Decoded METAR 2021/04/13 23:30 UTC NOAA

Ibiza / Es Codola, Spain (LEIB) 38-52N 001-23E 12M
Apr 13, 2021 - 07:30 PM EDT / 2021.04.13 2330 UTC
Wind: from the E (090 degrees) at 7 MPH (6 KT) (direction variable):0
Visibility: greater than 7 mile(s):0
Sky conditions: mostly cloudy
Temperature: 57 F (14 C)
Dew Point: 50 F (10 C)
Relative Humidity: 76%
Pressure (altimeter): 30.18 in. Hg (1022 hPa)
ob: LEIB 132330Z 09006KT 060V130 9999 BKN021 14/10 Q1022 NOSIG
cycle: 23

Station Type Date Time Source
LEIB TAF 2021/04/13 21:31 UTC NOAA

TAF LEIB 132000Z 1321/1421 10009KT 9999 FEW030 TX17/1412Z TN10/1406Z

Example: see airport list